Time;durP1;ratioP1;P1;durP2;ratioP2;P2;SDS_P1;SDS_P2;PMS_P1;PMS_P2;Temp;Humidity;BMP_temperature;BMP_pressure;BME280_temperature;BME280_humidity;BME280_pressure;Samples;Min_cycle;Max_cycle;Signal;HPM_P1;HPM_P2
2023/08/19 00:02:26;;;;;;;3.53;0.97;;;18.50;58.60;;;;;;5091129;28;20183;-72
2023/08/19 00:04:53;;;;;;;7.23;1.00;;;18.60;58.10;;;;;;5091802;28;20186;-70
2023/08/19 00:07:21;;;;;;;2.63;0.80;;;18.70;55.90;;;;;;5091938;28;20265;-70
2023/08/19 00:09:49;;;;;;;4.17;1.13;;;18.50;54.20;;;;;;5093203;28;20203;-71
2023/08/19 00:12:16;;;;;;;3.13;1.23;;;18.20;53.00;;;;;;5103417;28;20265;-70
2023/08/19 00:14:45;;;;;;;2.33;0.80;;;18.50;52.10;;;;;;5091610;28;20760;-70
2023/08/19 00:17:13;;;;;;;3.13;0.90;;;18.40;51.00;;;;;;5093015;28;20207;-69
2023/08/19 00:19:40;;;;;;;6.37;1.00;;;19.00;53.80;;;;;;5106721;28;20576;-69
2023/08/19 00:22:08;;;;;;;5.33;1.20;;;19.10;52.00;;;;;;5097833;28;20182;-70
2023/08/19 00:24:35;;;;;;;2.57;0.80;;;19.30;49.40;;;;;;5112469;28;20297;-70
2023/08/19 00:27:03;;;;;;;2.13;1.07;;;19.20;47.60;;;;;;5106365;28;20178;-69
2023/08/19 00:29:31;;;;;;;2.57;0.83;;;19.10;48.50;;;;;;5112865;28;20226;-71
2023/08/19 00:31:58;;;;;;;5.43;1.20;;;19.10;49.50;;;;;;5111735;28;20628;-69
2023/08/19 00:34:26;;;;;;;2.57;0.80;;;19.20;47.20;;;;;;5113332;28;20173;-68
2023/08/19 00:36:54;;;;;;;2.87;0.90;;;19.40;46.90;;;;;;5113382;28;20181;-70
2023/08/19 00:39:22;;;;;;;1.80;0.70;;;19.90;46.00;;;;;;5113315;28;20209;-68
2023/08/19 00:41:53;;;;;;;2.60;1.30;;;20.30;43.40;;;;;;5113391;28;20202;-68
2023/08/19 00:44:21;;;;;;;2.27;0.70;;;20.30;41.40;;;;;;5113376;28;20290;-69
2023/08/19 00:46:48;;;;;;;4.07;0.87;;;20.20;41.60;;;;;;5113435;28;20171;-68
2023/08/19 00:49:16;;;;;;;2.43;0.83;;;20.60;44.10;;;;;;5113301;28;20173;-69
2023/08/19 00:51:44;;;;;;;3.23;0.83;;;20.60;42.10;;;;;;5095166;28;20178;-71
2023/08/19 00:54:12;;;;;;;2.93;0.90;;;20.70;39.70;;;;;;5113344;28;20178;-71
2023/08/19 00:56:39;;;;;;;1.50;0.70;;;21.40;39.90;;;;;;5113198;28;20174;-69
2023/08/19 00:59:07;;;;;;;4.30;0.93;;;21.10;36.00;;;;;;5113316;28;20638;-70
2023/08/19 01:01:35;;;;;;;2.90;0.97;;;20.70;36.20;;;;;;5113328;28;20624;-69
2023/08/19 01:04:03;;;;;;;3.47;0.80;;;20.90;36.30;;;;;;5112971;28;20720;-72
2023/08/19 01:06:48;;;;;;;3.67;0.90;;;21.00;36.50;;;;;;5112891;28;20173;-72
2023/08/19 01:09:39;;;;;;;2.63;0.90;;;21.00;34.30;;;;;;5113062;28;20249;-71
2023/08/19 01:12:33;;;;;;;3.60;1.07;;;21.00;35.70;;;;;;5094642;28;20636;-70
2023/08/19 01:15:08;;;;;;;3.13;0.93;;;20.90;36.70;;;;;;5115157;28;20189;-72
2023/08/19 01:17:37;;;;;;;3.70;0.93;;;20.60;35.00;;;;;;5117252;28;20529;-69
2023/08/19 01:20:09;;;;;;;4.63;1.03;;;20.10;33.70;;;;;;5095324;28;20236;-71
2023/08/19 01:22:52;;;;;;;2.70;0.70;;;20.00;35.70;;;;;;5096912;28;20334;-71
2023/08/19 01:25:20;;;;;;;2.10;0.70;;;20.20;36.10;;;;;;5096850;28;20193;-69
2023/08/19 01:27:48;;;;;;;1.63;0.63;;;20.30;35.80;;;;;;5096591;28;20175;-70
2023/08/19 01:30:16;;;;;;;1.30;0.53;;;20.40;36.10;;;;;;5096451;28;20545;-70
2023/08/19 01:32:44;;;;;;;4.53;1.07;;;20.80;35.20;;;;;;5096665;28;20178;-70
2023/08/19 01:35:14;;;;;;;3.10;0.50;;;20.50;35.80;;;;;;5096594;28;20191;-68
2023/08/19 01:37:54;;;;;;;2.37;0.73;;;20.60;34.40;;;;;;5096210;28;20171;-73
2023/08/19 01:40:23;;;;;;;2.80;0.87;;;20.80;35.80;;;;;;5096412;28;20183;-73
2023/08/19 01:42:53;;;;;;;3.77;0.70;;;21.00;36.30;;;;;;5096577;28;20293;-70
2023/08/19 01:45:21;;;;;;;3.80;0.90;;;21.50;33.40;;;;;;5096517;28;20187;-72
2023/08/19 01:47:55;;;;;;;1.47;0.80;;;21.20;34.50;;;;;;5096213;28;20266;-69
2023/08/19 01:50:23;;;;;;;2.43;0.70;;;20.90;34.00;;;;;;5096481;28;20178;-69
2023/08/19 01:52:51;;;;;;;1.63;0.63;;;20.80;34.60;;;;;;5096315;28;20186;-69
2023/08/19 01:55:19;;;;;;;4.43;1.33;;;20.90;36.60;;;;;;5094813;28;20618;-72
2023/08/19 01:57:46;;;;;;;1.40;0.60;;;20.90;34.50;;;;;;5095874;28;20175;-72
2023/08/19 02:00:14;;;;;;;1.93;0.80;;;21.00;35.20;;;;;;5095841;28;20233;-69
2023/08/19 02:02:42;;;;;;;2.00;0.70;;;21.10;35.70;;;;;;5095705;28;20179;-70
2023/08/19 02:05:14;;;;;;;3.00;0.80;;;21.30;35.60;;;;;;5095807;28;20190;-70
2023/08/19 02:07:42;;;;;;;3.23;0.80;;;21.50;36.20;;;;;;5095512;28;20179;-70
2023/08/19 02:10:13;;;;;;;0.87;0.50;;;22.00;35.70;;;;;;5094591;28;20236;-69
2023/08/19 02:12:40;;;;;;;2.47;1.10;;;21.80;34.90;;;;;;5095490;28;20182;-68
2023/08/19 02:15:08;;;;;;;2.10;0.53;;;21.60;34.30;;;;;;5095452;28;20248;-70
2023/08/19 02:17:36;;;;;;;1.50;0.70;;;21.70;33.60;;;;;;5093865;28;20211;-68
2023/08/19 02:20:04;;;;;;;1.70;0.60;;;21.40;32.70;;;;;;5093912;28;20231;-67
2023/08/19 02:22:32;;;;;;;2.75;0.70;;;21.50;34.50;;;;;;5095427;28;20175;-68
2023/08/19 02:24:59;;;;;;;3.83;0.90;;;21.80;34.50;;;;;;5094997;28;20179;-68
2023/08/19 02:27:27;;;;;;;3.17;0.97;;;22.10;35.10;;;;;;5095354;28;20185;-69
2023/08/19 02:29:55;;;;;;;2.33;0.70;;;21.40;34.60;;;;;;5095285;28;20175;-68
2023/08/19 02:32:23;;;;;;;4.77;0.70;;;20.50;36.90;;;;;;5095319;28;20248;-68
2023/08/19 02:34:50;;;;;;;6.07;1.10;;;20.00;38.40;;;;;;5095322;28;20284;-68
2023/08/19 02:37:18;;;;;;;2.40;0.90;;;19.90;39.50;;;;;;5095151;28;20179;-68
2023/08/19 02:39:46;;;;;;;1.37;0.70;;;19.90;40.20;;;;;;5095327;28;20267;-68
2023/08/19 02:42:16;;;;;;;2.23;0.77;;;20.00;43.80;;;;;;5096416;28;20647;-68
2023/08/19 02:44:44;;;;;;;2.27;0.80;;;20.10;41.40;;;;;;5096463;28;20215;-68
2023/08/19 02:47:12;;;;;;;3.40;0.70;;;20.10;43.30;;;;;;5094901;28;20201;-69
2023/08/19 02:49:39;;;;;;;1.67;0.50;;;20.10;42.30;;;;;;5093626;28;20703;-69
2023/08/19 02:52:07;;;;;;;2.40;0.83;;;19.90;44.20;;;;;;5094934;28;20175;-68
2023/08/19 02:54:35;;;;;;;3.50;0.67;;;20.00;45.30;;;;;;5095011;28;20177;-68
2023/08/19 02:57:03;;;;;;;2.10;0.60;;;19.80;43.10;;;;;;5094596;28;20178;-68
2023/08/19 02:59:31;;;;;;;1.07;0.63;;;19.60;45.00;;;;;;5094718;28;20536;-68
2023/08/19 03:01:58;;;;;;;1.87;0.80;;;19.30;45.60;;;;;;5094724;28;20260;-71
2023/08/19 03:04:26;;;;;;;1.30;0.77;;;19.10;49.20;;;;;;5094716;28;20321;-69
2023/08/19 03:06:54;;;;;;;1.77;0.80;;;19.30;49.40;;;;;;5094788;28;20228;-69
2023/08/19 03:09:21;;;;;;;2.47;0.73;;;19.30;49.20;;;;;;5094437;28;20175;-68
2023/08/19 03:11:49;;;;;;;3.13;1.20;;;19.50;49.10;;;;;;5094551;28;20185;-70
2023/08/19 03:14:17;;;;;;;2.10;1.00;;;19.50;49.10;;;;;;5094518;28;20599;-69
2023/08/19 03:16:45;;;;;;;2.10;0.97;;;19.40;49.50;;;;;;5094332;28;20191;-69
2023/08/19 03:19:14;;;;;;;1.20;0.70;;;19.50;50.00;;;;;;5103872;28;20222;-69
2023/08/19 03:21:42;;;;;;;4.57;1.10;;;19.50;49.50;;;;;;5114930;28;20214;-69
2023/08/19 03:24:09;;;;;;;2.20;1.10;;;19.90;50.30;;;;;;5115060;28;20271;-71
2023/08/19 03:26:37;;;;;;;1.73;0.77;;;20.40;50.30;;;;;;5114621;28;20182;-69
2023/08/19 03:29:05;;;;;;;4.23;0.80;;;21.00;50.30;;;;;;5114547;28;20594;-71
2023/08/19 03:31:33;;;;;;;2.77;0.90;;;21.40;44.70;;;;;;5114512;28;20171;-68
2023/08/19 03:34:01;;;;;;;2.67;0.60;;;21.00;44.00;;;;;;5114479;28;20182;-70
2023/08/19 03:36:28;;;;;;;3.17;0.80;;;20.80;46.30;;;;;;5113748;28;20281;-68
2023/08/19 03:38:56;;;;;;;1.27;0.90;;;20.70;45.00;;;;;;5114103;28;20175;-69
2023/08/19 03:41:24;;;;;;;4.73;0.80;;;20.60;46.60;;;;;;5114326;28;20177;-67
2023/08/19 03:43:51;;;;;;;2.30;1.00;;;20.80;47.40;;;;;;5114244;28;20216;-67
2023/08/19 03:46:19;;;;;;;3.80;1.00;;;20.70;46.10;;;;;;5114284;28;20163;-68
2023/08/19 03:48:47;;;;;;;2.13;0.80;;;20.50;45.80;;;;;;5114268;28;20174;-68
2023/08/19 03:51:14;;;;;;;1.73;1.00;;;20.10;48.90;;;;;;5114112;28;20189;-68
2023/08/19 03:53:42;;;;;;;2.60;0.67;;;20.20;48.50;;;;;;5114048;28;20262;-68
2023/08/19 03:56:10;;;;;;;1.50;0.60;;;20.70;51.10;;;;;;5113958;28;20180;-68
2023/08/19 03:58:37;;;;;;;2.00;0.90;;;20.30;47.40;;;;;;5113991;28;20180;-68
2023/08/19 04:01:08;;;;;;;1.40;0.70;;;20.00;52.00;;;;;;5113951;28;20173;-71
2023/08/19 04:03:36;;;;;;;1.90;0.70;;;20.30;50.80;;;;;;5114051;28;20202;-68
2023/08/19 04:06:04;;;;;;;1.60;0.70;;;20.10;49.60;;;;;;5113962;28;20259;-71
2023/08/19 04:08:32;;;;;;;1.47;0.50;;;20.90;50.20;;;;;;5113847;28;20175;-68
2023/08/19 04:11:09;;;;;;;1.20;0.57;;;21.60;46.80;;;;;;5113851;28;20194;-69
2023/08/19 04:13:36;;;;;;;1.00;0.60;;;22.00;47.70;;;;;;5113559;28;20253;-69
2023/08/19 04:16:05;;;;;;;0.83;0.50;;;21.70;44.40;;;;;;5095454;28;20173;-70
2023/08/19 04:18:34;;;;;;;2.03;0.80;;;21.80;45.20;;;;;;5113378;28;20211;-71
2023/08/19 04:21:06;;;;;;;2.37;0.73;;;21.40;44.90;;;;;;5113538;28;20545;-69
2023/08/19 04:23:34;;;;;;;1.23;0.70;;;21.50;44.40;;;;;;5113565;28;20310;-70
2023/08/19 04:26:06;;;;;;;1.90;0.60;;;21.30;46.40;;;;;;5113254;28;20208;-68
2023/08/19 04:28:34;;;;;;;1.50;0.63;;;21.40;45.30;;;;;;5113635;28;20528;-71
2023/08/19 04:31:07;;;;;;;2.27;0.60;;;21.10;46.70;;;;;;5113424;28;20171;-69
2023/08/19 04:33:35;;;;;;;1.90;0.60;;;20.90;46.20;;;;;;5113412;28;20175;-68
2023/08/19 04:36:04;;;;;;;1.50;0.80;;;20.90;47.40;;;;;;5113436;28;20216;-68
2023/08/19 04:38:31;;;;;;;1.73;0.60;;;20.50;48.50;;;;;;5113134;28;20178;-69
2023/08/19 04:41:02;;;;;;;2.70;0.97;;;20.60;48.80;;;;;;5113560;28;20519;-68
2023/08/19 04:43:30;;;;;;;0.93;0.50;;;20.80;50.60;;;;;;5113236;28;20749;-69
2023/08/19 04:45:58;;;;;;;1.67;0.70;;;20.80;50.50;;;;;;5112999;28;20204;-68
2023/08/19 04:48:26;;;;;;;1.37;0.70;;;20.90;52.40;;;;;;5113247;28;20186;-68
2023/08/19 04:50:53;;;;;;;2.23;0.50;;;20.90;52.40;;;;;;5113249;28;20181;-68
2023/08/19 04:53:21;;;;;;;2.07;0.60;;;20.90;53.10;;;;;;5113219;28;20177;-69
2023/08/19 04:55:57;;;;;;;0.57;0.57;;;20.90;54.90;;;;;;5112829;28;20312;-69
2023/08/19 04:58:24;;;;;;;1.30;0.60;;;21.00;55.00;;;;;;5112779;28;20191;-68
2023/08/19 05:00:52;;;;;;;2.83;0.70;;;20.70;53.70;;;;;;5112968;28;20174;-69
2023/08/19 05:03:20;;;;;;;0.70;0.50;;;20.40;57.40;;;;;;5112947;28;20677;-71
2023/08/19 05:05:48;;;;;;;4.33;1.20;;;20.50;57.70;;;;;;5112850;28;20228;-68
2023/08/19 05:08:16;;;;;;;3.10;1.03;;;20.40;59.80;;;;;;5112780;28;20174;-69
2023/08/19 05:10:44;;;;;;;2.10;0.83;;;20.30;57.70;;;;;;5112928;28;20268;-68
2023/08/19 05:13:12;;;;;;;2.37;1.07;;;20.10;59.20;;;;;;5112854;28;20618;-68
2023/08/19 05:15:39;;;;;;;2.40;1.10;;;19.70;62.80;;;;;;5112818;28;20700;-70
2023/08/19 05:18:08;;;;;;;3.80;1.20;;;19.50;66.30;;;;;;5112478;28;20517;-70
2023/08/19 05:20:36;;;;;;;1.63;0.80;;;19.40;69.90;;;;;;5113264;28;20183;-69
2023/08/19 05:23:04;;;;;;;0.83;0.50;;;19.20;72.80;;;;;;5112807;28;20214;-68
2023/08/19 05:25:32;;;;;;;1.70;0.80;;;19.10;75.20;;;;;;5112635;28;20179;-70
2023/08/19 05:27:59;;;;;;;2.97;0.60;;;19.00;76.40;;;;;;5112697;28;20257;-68
2023/08/19 05:30:27;;;;;;;2.00;0.90;;;18.90;78.60;;;;;;5112870;28;20614;-68
2023/08/19 05:32:55;;;;;;;1.50;0.80;;;19.20;79.90;;;;;;5094365;28;20622;-69
2023/08/19 05:35:22;;;;;;;1.57;0.90;;;19.40;79.60;;;;;;5112544;28;20631;-68
2023/08/19 05:37:50;;;;;;;1.23;0.70;;;19.50;79.50;;;;;;5094034;28;20550;-68
2023/08/19 05:40:18;;;;;;;2.20;0.80;;;19.50;80.50;;;;;;5112616;28;20180;-69
2023/08/19 05:42:46;;;;;;;0.90;0.50;;;19.60;78.00;;;;;;5112566;28;20187;-70
2023/08/19 05:45:13;;;;;;;1.13;0.50;;;19.50;79.60;;;;;;5112752;28;20183;-68
2023/08/19 05:47:41;;;;;;;1.53;0.57;;;19.40;77.30;;;;;;5112588;28;20212;-69
2023/08/19 05:50:09;;;;;;;1.63;0.60;;;19.40;79.30;;;;;;5112632;28;20189;-70
2023/08/19 05:52:36;;;;;;;2.83;0.53;;;19.50;79.60;;;;;;5112562;28;20198;-69
2023/08/19 05:55:04;;;;;;;1.47;0.60;;;19.50;81.90;;;;;;5112508;28;20170;-70
2023/08/19 05:57:32;;;;;;;2.23;0.60;;;19.30;82.10;;;;;;5112383;28;20175;-69
2023/08/19 06:00:00;;;;;;;1.43;0.60;;;19.10;83.20;;;;;;5112879;28;20182;-68
2023/08/19 06:02:28;;;;;;;1.60;0.73;;;19.00;83.50;;;;;;5116524;28;20576;-68
2023/08/19 06:04:55;;;;;;;1.17;0.57;;;18.70;85.90;;;;;;5116211;28;20207;-68
2023/08/19 06:07:25;;;;;;;1.80;0.60;;;18.50;89.90;;;;;;5115993;28;20176;-69
2023/08/19 06:09:53;;;;;;;0.50;0.50;;;18.50;90.40;;;;;;5116321;28;20170;-70
2023/08/19 06:12:20;;;;;;;4.10;0.60;;;18.30;91.50;;;;;;5116164;28;20175;-69
2023/08/19 06:14:48;;;;;;;2.17;0.60;;;18.20;92.20;;;;;;5116100;28;20174;-68
2023/08/19 06:17:16;;;;;;;1.70;1.00;;;18.10;93.50;;;;;;5115837;28;20250;-67
2023/08/19 06:19:44;;;;;;;2.07;0.50;;;18.10;95.20;;;;;;5115893;28;20214;-69
2023/08/19 06:22:12;;;;;;;1.40;0.47;;;18.00;95.30;;;;;;5116045;28;20391;-69
2023/08/19 06:24:39;;;;;;;1.50;0.60;;;17.90;95.80;;;;;;5115760;28;20297;-69
2023/08/19 06:27:07;;;;;;;2.23;1.00;;;17.80;96.80;;;;;;5115989;28;20178;-70
2023/08/19 06:29:35;;;;;;;2.83;1.70;;;17.70;98.50;;;;;;5115818;28;20285;-69
2023/08/19 06:32:03;;;;;;;4.73;1.00;;;17.70;99.90;;;;;;5115664;28;20689;-68
2023/08/19 06:34:31;;;;;;;2.80;1.70;;;17.60;99.90;;;;;;5115707;28;20666;-70
2023/08/19 06:37:01;;;;;;;2.07;1.03;;;17.50;99.90;;;;;;5115495;28;20205;-68
2023/08/19 06:39:29;;;;;;;3.27;2.03;;;17.40;99.90;;;;;;5115472;28;20182;-71
2023/08/19 06:42:05;;;;;;;2.40;1.10;;;17.30;99.90;;;;;;5115505;28;20640;-71
2023/08/19 06:44:37;;;;;;;1.67;0.53;;;17.10;99.90;;;;;;5120638;28;20213;-69
2023/08/19 06:47:07;;;;;;;2.47;0.90;;;17.00;99.90;;;;;;5118587;28;20227;-69
2023/08/19 06:49:35;;;;;;;1.93;0.50;;;17.00;99.90;;;;;;5115687;28;20179;-70
2023/08/19 06:52:04;;;;;;;1.00;0.90;;;17.00;99.90;;;;;;5115562;28;20521;-70
2023/08/19 06:54:32;;;;;;;3.30;0.93;;;17.00;99.90;;;;;;5115176;28;20167;-70
2023/08/19 06:57:08;;;;;;;1.07;0.80;;;16.90;99.90;;;;;;5114868;28;20194;-69
2023/08/19 06:59:38;;;;;;;3.50;0.93;;;16.80;99.90;;;;;;5115229;28;20646;-70
2023/08/19 07:02:07;;;;;;;0.97;0.67;;;16.70;99.90;;;;;;5115316;28;20175;-70
2023/08/19 07:04:36;;;;;;;1.53;1.10;;;16.60;99.90;;;;;;5096598;28;20576;-70
2023/08/19 07:07:05;;;;;;;1.40;1.20;;;16.60;99.90;;;;;;5114956;28;20174;-69
2023/08/19 07:09:35;;;;;;;3.47;1.00;;;16.50;99.90;;;;;;5114805;28;20178;-70
2023/08/19 07:12:03;;;;;;;1.83;1.27;;;16.40;99.90;;;;;;5113693;28;20626;-70
2023/08/19 07:14:31;;;;;;;2.63;1.10;;;16.40;99.90;;;;;;5115131;28;20185;-69
2023/08/19 07:17:03;;;;;;;2.97;1.87;;;16.30;99.90;;;;;;5114609;28;20185;-70
2023/08/19 07:19:40;;;;;;;4.07;0.90;;;16.30;99.90;;;;;;5114396;28;20283;-72
2023/08/19 07:22:09;;;;;;;1.03;0.70;;;16.20;99.90;;;;;;5114602;28;20208;-69
2023/08/19 07:24:37;;;;;;;2.17;1.10;;;16.10;99.90;;;;;;5096096;28;20551;-69
2023/08/19 07:27:05;;;;;;;2.10;1.23;;;16.00;99.90;;;;;;5096155;28;20182;-69
2023/08/19 07:29:35;;;;;;;2.10;1.60;;;15.90;99.90;;;;;;5114485;28;20643;-68
2023/08/19 07:32:06;;;;;;;1.60;1.00;;;15.90;99.90;;;;;;5114428;28;20169;-70
2023/08/19 07:34:33;;;;;;;1.77;0.77;;;15.80;99.90;;;;;;5114482;28;20170;-69
2023/08/19 07:37:02;;;;;;;2.83;0.70;;;15.70;99.90;;;;;;5114263;28;20178;-69
2023/08/19 07:39:30;;;;;;;2.10;0.87;;;15.60;99.90;;;;;;5114302;28;20504;-70
2023/08/19 07:41:58;;;;;;;1.47;0.90;;;15.60;99.90;;;;;;5114155;28;20180;-70
2023/08/19 07:44:25;;;;;;;5.07;1.00;;;15.50;99.90;;;;;;5114109;28;20625;-70
2023/08/19 07:46:55;;;;;;;1.80;1.00;;;15.40;99.90;;;;;;5114065;28;20527;-70
2023/08/19 07:49:23;;;;;;;2.97;1.23;;;15.40;99.90;;;;;;5114242;28;20251;-69
2023/08/19 07:51:51;;;;;;;1.30;0.70;;;15.30;99.90;;;;;;5114203;28;20215;-71
2023/08/19 07:54:21;;;;;;;3.73;0.90;;;15.30;99.90;;;;;;5114068;28;20172;-70
2023/08/19 07:56:53;;;;;;;1.20;0.97;;;15.20;99.90;;;;;;5113655;28;20170;-68
2023/08/19 07:59:23;;;;;;;1.20;0.90;;;15.20;99.90;;;;;;5113743;28;20187;-70
2023/08/19 08:01:51;;;;;;;1.53;1.00;;;15.10;99.90;;;;;;5114064;28;20169;-68
2023/08/19 08:04:19;;;;;;;1.70;0.77;;;15.10;99.90;;;;;;5113769;28;20228;-68
2023/08/19 08:06:48;;;;;;;2.13;1.40;;;15.00;99.90;;;;;;5113899;28;20171;-68
2023/08/19 08:09:16;;;;;;;1.40;1.10;;;14.90;99.90;;;;;;5113783;28;20263;-68
2023/08/19 08:11:47;;;;;;;1.70;1.00;;;14.80;99.90;;;;;;5113633;28;20235;-68
2023/08/19 08:14:16;;;;;;;1.47;1.00;;;14.80;99.90;;;;;;5095308;28;20174;-70
2023/08/19 08:16:44;;;;;;;1.87;1.00;;;14.80;99.90;;;;;;5113370;28;20170;-68
2023/08/19 08:19:11;;;;;;;2.07;1.10;;;14.80;99.90;;;;;;5113438;28;20222;-68
2023/08/19 08:21:39;;;;;;;3.33;1.30;;;14.70;99.90;;;;;;5113692;28;20173;-68
2023/08/19 08:24:07;;;;;;;1.67;1.10;;;14.60;99.90;;;;;;5113024;28;20212;-71
2023/08/19 08:26:35;;;;;;;1.73;1.20;;;14.50;99.90;;;;;;5113463;28;20255;-69
2023/08/19 08:29:03;;;;;;;1.40;1.30;;;14.50;99.90;;;;;;5095288;28;20179;-69
2023/08/19 08:31:30;;;;;;;2.43;1.37;;;14.50;99.90;;;;;;5095138;28;20182;-70
2023/08/19 08:33:58;;;;;;;2.13;1.47;;;14.50;99.90;;;;;;5113395;28;20189;-69
2023/08/19 08:36:26;;;;;;;2.90;1.77;;;14.40;99.90;;;;;;5113244;28;20258;-70
2023/08/19 08:38:54;;;;;;;3.53;2.37;;;14.30;99.90;;;;;;5113476;28;20176;-70
2023/08/19 08:41:22;;;;;;;3.70;2.37;;;14.20;99.90;;;;;;5113279;28;20170;-71
2023/08/19 08:43:50;;;;;;;2.60;1.80;;;14.20;99.90;;;;;;5113259;28;20255;-70
2023/08/19 08:46:22;;;;;;;2.07;1.40;;;14.10;99.90;;;;;;5113304;28;20180;-69
2023/08/19 08:48:51;;;;;;;1.73;1.63;;;14.10;99.90;;;;;;5113241;28;20529;-69
2023/08/19 08:51:20;;;;;;;2.43;1.70;;;13.90;99.90;;;;;;5113076;28;20657;-70
2023/08/19 08:53:52;;;;;;;2.20;1.37;;;13.80;99.90;;;;;;5113048;28;20180;-70
2023/08/19 08:56:22;;;;;;;1.83;1.40;;;13.80;99.90;;;;;;5112973;28;20209;-71
2023/08/19 08:58:50;;;;;;;2.77;1.47;;;13.70;99.90;;;;;;5094823;28;20500;-69
2023/08/19 09:01:20;;;;;;;1.20;1.10;;;13.60;99.90;;;;;;5113182;28;20177;-69
2023/08/19 09:03:48;;;;;;;1.97;1.03;;;13.60;99.90;;;;;;5112888;28;20238;-70
2023/08/19 09:06:19;;;;;;;2.50;1.00;;;13.50;99.90;;;;;;5112876;28;20180;-70
2023/08/19 09:09:05;;;;;;;2.07;1.30;;;13.40;99.90;;;;;;5094920;28;20549;-69
2023/08/19 09:11:44;;;;;;;2.07;1.30;;;13.40;99.90;;;;;;5113319;28;20177;-68
2023/08/19 09:14:18;;;;;;;2.03;1.60;;;13.30;99.90;;;;;;5112898;28;20248;-68
2023/08/19 09:16:46;;;;;;;4.00;2.93;;;13.20;99.90;;;;;;5112679;28;20170;-69
2023/08/19 09:19:13;;;;;;;6.90;3.60;;;13.10;99.90;;;;;;5112537;28;20331;-70
2023/08/19 09:21:42;;;;;;;2.97;2.03;;;13.00;99.90;;;;;;5112698;28;20177;-68
2023/08/19 09:24:14;;;;;;;3.53;2.20;;;12.80;99.90;;;;;;5112663;28;20298;-69
2023/08/19 09:26:44;;;;;;;1.87;1.57;;;12.70;99.90;;;;;;5112596;28;20246;-68
2023/08/19 09:29:13;;;;;;;5.87;2.43;;;12.70;99.90;;;;;;5112715;28;20222;-69
2023/08/19 09:31:56;;;;;;;3.47;2.67;;;12.60;99.90;;;;;;5112597;28;20176;-69
2023/08/19 09:34:23;;;;;;;5.13;2.70;;;12.40;99.90;;;;;;5112742;28;20171;-70
2023/08/19 09:36:57;;;;;;;4.27;2.43;;;12.30;99.90;;;;;;5115894;28;20265;-69
2023/08/19 09:39:35;;;;;;;2.57;1.90;;;12.20;99.90;;;;;;5116955;28;20172;-69
2023/08/19 09:42:02;;;;;;;4.80;2.23;;;12.20;99.90;;;;;;5116793;28;20169;-69
2023/08/19 09:44:34;;;;;;;3.27;2.20;;;12.10;99.90;;;;;;5116451;28;20216;-69
2023/08/19 09:47:04;;;;;;;6.37;2.60;;;12.10;99.90;;;;;;5116857;28;20641;-68
2023/08/19 09:49:36;;;;;;;3.73;2.30;;;12.00;99.90;;;;;;5117266;28;20194;-68
2023/08/19 09:52:04;;;;;;;5.07;3.37;;;12.00;99.90;;;;;;5116918;28;20260;-68
2023/08/19 09:54:32;;;;;;;4.13;2.97;;;12.00;99.90;;;;;;5116357;28;20180;-68
2023/08/19 09:57:03;;;;;;;5.20;3.00;;;12.00;99.90;;;;;;5116468;28;20637;-68
2023/08/19 09:59:30;;;;;;;4.13;3.07;;;11.90;99.90;;;;;;5116345;28;20243;-68
2023/08/19 10:02:00;;;;;;;5.77;2.93;;;11.90;99.90;;;;;;5116410;28;20180;-67
2023/08/19 10:04:27;;;;;;;3.10;2.53;;;11.90;99.90;;;;;;5116386;28;20212;-68
2023/08/19 10:07:01;;;;;;;4.50;2.43;;;11.90;99.90;;;;;;5116230;28;20165;-68
2023/08/19 10:09:30;;;;;;;3.20;2.50;;;11.80;99.90;;;;;;5116197;28;20165;-68
2023/08/19 10:12:02;;;;;;;4.97;2.90;;;11.80;99.90;;;;;;5116192;28;20329;-68
2023/08/19 10:14:33;;;;;;;6.33;2.93;;;11.80;99.90;;;;;;5115865;28;20222;-67
2023/08/19 10:17:06;;;;;;;4.50;2.90;;;11.90;99.90;;;;;;5115703;28;20184;-68
2023/08/19 10:19:53;;;;;;;4.30;3.00;;;11.80;99.90;;;;;;5115979;28;20226;-69
2023/08/19 10:22:21;;;;;;;4.13;3.10;;;11.90;99.90;;;;;;5115948;28;20187;-69
2023/08/19 10:24:57;;;;;;;6.03;3.80;;;11.80;99.90;;;;;;5115758;28;20698;-69
2023/08/19 10:27:26;;;;;;;6.73;4.00;;;11.80;99.90;;;;;;5115905;28;20310;-70
2023/08/19 10:29:58;;;;;;;7.43;4.53;;;11.80;99.90;;;;;;5115634;28;20187;-69
2023/08/19 10:32:33;;;;;;;7.83;4.57;;;11.60;99.90;;;;;;5115884;28;20177;-69
2023/08/19 10:35:08;;;;;;;6.77;4.47;;;11.60;99.90;;;;;;5115512;28;20578;-70
2023/08/19 10:37:50;;;;;;;13.03;5.83;;;11.50;99.90;;;;;;5115589;28;20359;-71
2023/08/19 10:40:25;;;;;;;9.07;5.33;;;11.50;99.90;;;;;;5115880;28;20175;-69
2023/08/19 10:43:00;;;;;;;8.17;4.77;;;11.40;99.90;;;;;;5115314;28;20216;-69
2023/08/19 10:45:35;;;;;;;8.13;4.53;;;11.50;99.90;;;;;;5115673;28;20222;-69
2023/08/19 10:48:03;;;;;;;6.63;4.53;;;11.50;99.90;;;;;;5115196;28;20261;-69
2023/08/19 10:50:42;;;;;;;7.70;5.23;;;11.50;99.90;;;;;;5115268;28;20286;-70
2023/08/19 10:53:19;;;;;;;8.47;5.23;;;11.40;99.90;;;;;;5115287;28;20179;-69
2023/08/19 10:55:54;;;;;;;5.73;4.87;;;11.40;99.90;;;;;;5115227;28;20202;-70
2023/08/19 10:58:23;;;;;;;9.20;4.57;;;11.30;99.90;;;;;;5114964;28;20245;-69
2023/08/19 11:00:51;;;;;;;7.90;4.70;;;11.20;99.90;;;;;;5097114;28;20176;-69
2023/08/19 11:03:19;;;;;;;7.73;4.73;;;11.10;99.90;;;;;;5115140;28;20199;-69
2023/08/19 11:05:53;;;;;;;8.87;3.93;;;11.10;99.90;;;;;;5115001;28;20199;-70
2023/08/19 11:08:22;;;;;;;5.47;4.00;;;11.10;99.90;;;;;;5114982;28;20174;-69
2023/08/19 11:10:50;;;;;;;6.10;3.80;;;11.10;99.90;;;;;;5115022;28;20190;-69
2023/08/19 11:13:18;;;;;;;4.87;3.50;;;11.00;99.90;;;;;;5114926;28;20181;-69
2023/08/19 11:15:45;;;;;;;3.90;2.37;;;11.10;99.90;;;;;;5114876;28;20633;-69
2023/08/19 11:18:20;;;;;;;3.17;1.73;;;11.40;99.90;;;;;;5114531;28;20629;-69
2023/08/19 11:20:48;;;;;;;2.60;1.80;;;11.60;99.90;;;;;;5114728;28;20196;-70
2023/08/19 11:23:27;;;;;;;1.77;1.40;;;12.00;99.90;;;;;;5114509;28;20593;-69
2023/08/19 11:25:55;;;;;;;1.77;1.27;;;12.30;99.90;;;;;;5115052;28;20175;-69
2023/08/19 11:28:24;;;;;;;1.87;1.50;;;12.50;99.90;;;;;;5114785;28;20176;-69
2023/08/19 11:30:52;;;;;;;2.70;1.80;;;12.60;99.90;;;;;;5114892;28;20180;-69
2023/08/19 11:33:26;;;;;;;1.80;1.40;;;12.70;99.90;;;;;;5114466;28;20627;-69
2023/08/19 11:35:53;;;;;;;1.27;1.17;;;12.70;99.90;;;;;;5114334;28;20197;-70
2023/08/19 11:38:24;;;;;;;1.43;1.10;;;12.80;99.90;;;;;;5114425;28;20637;-68
2023/08/19 11:40:52;;;;;;;1.37;1.10;;;12.90;99.90;;;;;;5114338;28;20271;-70
2023/08/19 11:43:28;;;;;;;1.20;1.10;;;13.00;99.90;;;;;;5114219;28;20657;-69
2023/08/19 11:45:56;;;;;;;1.00;0.90;;;13.00;99.90;;;;;;5114133;28;20190;-70
2023/08/19 11:48:24;;;;;;;1.27;0.90;;;13.00;99.90;;;;;;5114331;28;20670;-68
2023/08/19 11:50:52;;;;;;;0.80;0.80;;;13.00;99.90;;;;;;5113440;28;20179;-69
2023/08/19 11:53:27;;;;;;;1.03;0.93;;;12.90;99.90;;;;;;5116026;27;20189;-66
2023/08/19 11:56:01;;;;;;;1.37;0.90;;;12.90;99.90;;;;;;5121958;27;20184;-66
2023/08/19 11:58:50;;;;;;;1.50;0.97;;;12.90;99.90;;;;;;5126174;27;20203;-67
2023/08/19 12:01:18;;;;;;;1.13;1.03;;;12.90;99.90;;;;;;5130327;27;20176;-66
2023/08/19 12:03:54;;;;;;;2.07;1.30;;;12.90;99.90;;;;;;5113998;28;20409;-67
2023/08/19 12:06:22;;;;;;;1.20;1.10;;;12.90;99.90;;;;;;5113424;28;20202;-65
2023/08/19 12:08:49;;;;;;;1.70;1.10;;;12.90;99.90;;;;;;5098323;28;20289;-67
2023/08/19 12:11:27;;;;;;;2.67;1.20;;;12.90;99.90;;;;;;5113571;28;20237;-65
2023/08/19 12:13:55;;;;;;;1.23;1.07;;;12.80;99.90;;;;;;5112965;28;20185;-66
2023/08/19 12:16:22;;;;;;;1.10;1.00;;;12.90;99.90;;;;;;5113700;28;20175;-66
2023/08/19 12:18:50;;;;;;;1.10;1.00;;;13.00;99.90;;;;;;5112766;28;20221;-67
2023/08/19 12:21:17;;;;;;;1.13;0.83;;;13.00;99.90;;;;;;5113450;28;20189;-66
2023/08/19 12:23:44;;;;;;;1.17;0.90;;;13.00;99.90;;;;;;5113086;28;20330;-67
2023/08/19 12:26:11;;;;;;;0.80;0.80;;;13.00;99.90;;;;;;5112803;28;20188;-66
2023/08/19 12:28:39;;;;;;;0.80;0.80;;;13.10;99.90;;;;;;5095537;28;20267;-67
2023/08/19 12:31:06;;;;;;;1.03;0.93;;;13.10;99.90;;;;;;5113497;28;20181;-67
2023/08/19 12:33:35;;;;;;;1.67;0.87;;;13.00;99.90;;;;;;5113509;28;20184;-66
2023/08/19 12:36:03;;;;;;;1.70;1.27;;;12.90;99.90;;;;;;5113714;28;20535;-67
2023/08/19 12:38:30;;;;;;;1.13;1.03;;;12.80;99.90;;;;;;5113248;28;20242;-68
2023/08/19 12:40:57;;;;;;;1.10;1.00;;;12.70;99.90;;;;;;5113738;28;20280;-66
2023/08/19 12:43:24;;;;;;;1.93;1.30;;;12.60;99.90;;;;;;5113262;28;20249;-68
2023/08/19 12:45:52;;;;;;;3.67;1.40;;;12.50;99.90;;;;;;5112775;28;20189;-68
2023/08/19 12:48:19;;;;;;;1.80;1.20;;;12.40;99.90;;;;;;5113603;28;20646;-67
2023/08/19 12:50:46;;;;;;;2.00;1.70;;;12.40;99.90;;;;;;5113425;28;20248;-68
2023/08/19 12:53:14;;;;;;;1.40;1.23;;;12.40;99.90;;;;;;5113215;28;20617;-66
2023/08/19 12:55:42;;;;;;;2.83;1.70;;;12.50;99.90;;;;;;5113247;28;20178;-68
2023/08/19 12:58:09;;;;;;;1.77;1.47;;;12.60;99.90;;;;;;5113320;28;20208;-67
2023/08/19 13:00:36;;;;;;;2.07;1.60;;;12.80;99.90;;;;;;5112966;28;20216;-65